sensor_id;sensor_type;location;lat;lon;timestamp;P1;durP1;ratioP1;P2;durP2;ratioP2
71910;SDS011;59783;52.232;5.170;2023-03-14T00:00:15;28.03;;;21.50;;
71910;SDS011;59783;52.232;5.170;2023-03-14T00:02:41;29.65;;;20.50;;
71910;SDS011;59783;52.232;5.170;2023-03-14T00:05:06;31.33;;;20.30;;
71910;SDS011;59783;52.232;5.170;2023-03-14T00:07:35;27.58;;;19.27;;
71910;SDS011;59783;52.232;5.170;2023-03-14T00:10:08;29.55;;;18.30;;
71910;SDS011;59783;52.232;5.170;2023-03-14T00:12:34;32.00;;;19.85;;
71910;SDS011;59783;52.232;5.170;2023-03-14T00:14:59;27.42;;;18.80;;
71910;SDS011;59783;52.232;5.170;2023-03-14T00:17:28;30.55;;;19.77;;
71910;SDS011;59783;52.232;5.170;2023-03-14T00:19:54;25.85;;;19.25;;
71910;SDS011;59783;52.232;5.170;2023-03-14T00:22:20;27.35;;;19.70;;
71910;SDS011;59783;52.232;5.170;2023-03-14T00:24:45;32.42;;;20.27;;
71910;SDS011;59783;52.232;5.170;2023-03-14T00:27:10;25.67;;;20.77;;
71910;SDS011;59783;52.232;5.170;2023-03-14T00:29:35;23.23;;;19.17;;
71910;SDS011;59783;52.232;5.170;2023-03-14T00:32:01;30.13;;;18.67;;
71910;SDS011;59783;52.232;5.170;2023-03-14T00:36:55;27.77;;;17.55;;
71910;SDS011;59783;52.232;5.170;2023-03-14T00:39:20;24.67;;;19.27;;
71910;SDS011;59783;52.232;5.170;2023-03-14T00:41:45;27.97;;;21.33;;
71910;SDS011;59783;52.232;5.170;2023-03-14T00:44:10;27.60;;;18.97;;
71910;SDS011;59783;52.232;5.170;2023-03-14T00:46:36;27.40;;;19.33;;
71910;SDS011;59783;52.232;5.170;2023-03-14T00:49:01;25.40;;;18.67;;
71910;SDS011;59783;52.232;5.170;2023-03-14T00:51:26;28.73;;;19.13;;
71910;SDS011;59783;52.232;5.170;2023-03-14T00:53:51;23.43;;;18.93;;
71910;SDS011;59783;52.232;5.170;2023-03-14T00:56:16;25.17;;;19.80;;
71910;SDS011;59783;52.232;5.170;2023-03-14T00:58:42;28.20;;;19.53;;
71910;SDS011;59783;52.232;5.170;2023-03-14T01:01:08;26.33;;;19.27;;
71910;SDS011;59783;52.232;5.170;2023-03-14T01:03:33;26.65;;;20.17;;
71910;SDS011;59783;52.232;5.170;2023-03-14T01:08:50;25.42;;;20.10;;
71910;SDS011;59783;52.232;5.170;2023-03-14T01:13:43;23.38;;;20.38;;
71910;SDS011;59783;52.232;5.170;2023-03-14T01:16:09;25.52;;;19.88;;
71910;SDS011;59783;52.232;5.170;2023-03-14T01:18:35;21.45;;;18.63;;
71910;SDS011;59783;52.232;5.170;2023-03-14T01:21:01;22.92;;;20.48;;
71910;SDS011;59783;52.232;5.170;2023-03-14T01:23:27;23.95;;;19.55;;
71910;SDS011;59783;52.232;5.170;2023-03-14T01:25:52;29.43;;;19.67;;
71910;SDS011;59783;52.232;5.170;2023-03-14T01:28:17;29.45;;;21.20;;
71910;SDS011;59783;52.232;5.170;2023-03-14T01:30:42;29.43;;;19.90;;
71910;SDS011;59783;52.232;5.170;2023-03-14T01:33:08;26.17;;;23.37;;
71910;SDS011;59783;52.232;5.170;2023-03-14T01:35:33;29.40;;;21.27;;
71910;SDS011;59783;52.232;5.170;2023-03-14T01:37:58;27.80;;;21.80;;
71910;SDS011;59783;52.232;5.170;2023-03-14T01:40:23;23.80;;;20.50;;
71910;SDS011;59783;52.232;5.170;2023-03-14T01:42:55;30.53;;;21.43;;
71910;SDS011;59783;52.232;5.170;2023-03-14T01:48:04;26.55;;;21.60;;
71910;SDS011;59783;52.232;5.170;2023-03-14T01:50:29;26.13;;;21.85;;
71910;SDS011;59783;52.232;5.170;2023-03-14T01:52:55;30.47;;;22.33;;
71910;SDS011;59783;52.232;5.170;2023-03-14T01:55:21;27.80;;;22.85;;
71910;SDS011;59783;52.232;5.170;2023-03-14T01:57:52;30.90;;;20.85;;
71910;SDS011;59783;52.232;5.170;2023-03-14T02:00:19;26.20;;;20.45;;
71910;SDS011;59783;52.232;5.170;2023-03-14T02:02:49;29.50;;;22.85;;
71910;SDS011;59783;52.232;5.170;2023-03-14T02:05:16;27.35;;;20.00;;
71910;SDS011;59783;52.232;5.170;2023-03-14T02:07:45;27.40;;;20.50;;
71910;SDS011;59783;52.232;5.170;2023-03-14T02:10:11;25.15;;;20.50;;
71910;SDS011;59783;52.232;5.170;2023-03-14T02:12:36;25.30;;;19.88;;
71910;SDS011;59783;52.232;5.170;2023-03-14T02:15:02;24.20;;;19.73;;
71910;SDS011;59783;52.232;5.170;2023-03-14T02:17:28;28.02;;;19.35;;
71910;SDS011;59783;52.232;5.170;2023-03-14T02:22:24;26.17;;;22.77;;
71910;SDS011;59783;52.232;5.170;2023-03-14T02:25:02;28.33;;;21.40;;
71910;SDS011;59783;52.232;5.170;2023-03-14T02:27:29;21.90;;;19.48;;
71910;SDS011;59783;52.232;5.170;2023-03-14T02:29:55;26.88;;;22.75;;
71910;SDS011;59783;52.232;5.170;2023-03-14T02:32:21;25.50;;;21.35;;
71910;SDS011;59783;52.232;5.170;2023-03-14T02:34:48;25.73;;;20.80;;
71910;SDS011;59783;52.232;5.170;2023-03-14T02:37:14;26.15;;;19.60;;
71910;SDS011;59783;52.232;5.170;2023-03-14T02:39:41;24.75;;;19.20;;
71910;SDS011;59783;52.232;5.170;2023-03-14T02:42:09;24.20;;;20.05;;
71910;SDS011;59783;52.232;5.170;2023-03-14T02:44:34;24.53;;;19.13;;
71910;SDS011;59783;52.232;5.170;2023-03-14T02:47:00;24.90;;;19.00;;
71910;SDS011;59783;52.232;5.170;2023-03-14T02:49:25;26.70;;;19.85;;
71910;SDS011;59783;52.232;5.170;2023-03-14T02:51:52;22.67;;;19.25;;
71910;SDS011;59783;52.232;5.170;2023-03-14T02:54:18;22.58;;;18.88;;
71910;SDS011;59783;52.232;5.170;2023-03-14T02:56:44;25.63;;;21.27;;
71910;SDS011;59783;52.232;5.170;2023-03-14T02:59:09;23.47;;;21.13;;
71910;SDS011;59783;52.232;5.170;2023-03-14T03:01:34;23.27;;;19.50;;
71910;SDS011;59783;52.232;5.170;2023-03-14T03:03:59;23.93;;;21.33;;
71910;SDS011;59783;52.232;5.170;2023-03-14T03:06:25;26.97;;;19.80;;
71910;SDS011;59783;52.232;5.170;2023-03-14T03:08:50;25.38;;;18.42;;
71910;SDS011;59783;52.232;5.170;2023-03-14T03:11:15;25.92;;;21.83;;
71910;SDS011;59783;52.232;5.170;2023-03-14T03:13:41;21.70;;;19.30;;
71910;SDS011;59783;52.232;5.170;2023-03-14T03:16:06;23.85;;;19.52;;
71910;SDS011;59783;52.232;5.170;2023-03-14T03:18:31;24.05;;;19.30;;
71910;SDS011;59783;52.232;5.170;2023-03-14T03:20:59;22.63;;;19.20;;
71910;SDS011;59783;52.232;5.170;2023-03-14T03:23:25;26.38;;;21.45;;
71910;SDS011;59783;52.232;5.170;2023-03-14T03:25:50;26.17;;;20.20;;
71910;SDS011;59783;52.232;5.170;2023-03-14T03:28:16;26.10;;;20.80;;
71910;SDS011;59783;52.232;5.170;2023-03-14T03:30:41;23.33;;;19.00;;
71910;SDS011;59783;52.232;5.170;2023-03-14T03:33:07;27.05;;;21.85;;
71910;SDS011;59783;52.232;5.170;2023-03-14T03:35:32;23.38;;;20.85;;
71910;SDS011;59783;52.232;5.170;2023-03-14T03:37:57;24.63;;;19.25;;
71910;SDS011;59783;52.232;5.170;2023-03-14T03:40:22;26.42;;;20.00;;
71910;SDS011;59783;52.232;5.170;2023-03-14T03:42:48;23.23;;;19.45;;
71910;SDS011;59783;52.232;5.170;2023-03-14T03:45:13;23.70;;;20.17;;
71910;SDS011;59783;52.232;5.170;2023-03-14T03:47:38;31.50;;;22.73;;
71910;SDS011;59783;52.232;5.170;2023-03-14T03:50:03;28.13;;;19.37;;
71910;SDS011;59783;52.232;5.170;2023-03-14T03:52:29;27.30;;;20.20;;
71910;SDS011;59783;52.232;5.170;2023-03-14T03:54:54;23.50;;;19.70;;
71910;SDS011;59783;52.232;5.170;2023-03-14T03:57:19;31.03;;;20.60;;
71910;SDS011;59783;52.232;5.170;2023-03-14T03:59:44;26.27;;;22.50;;
71910;SDS011;59783;52.232;5.170;2023-03-14T04:02:10;26.07;;;20.63;;
71910;SDS011;59783;52.232;5.170;2023-03-14T04:04:35;23.70;;;18.70;;
71910;SDS011;59783;52.232;5.170;2023-03-14T04:07:00;30.30;;;20.15;;
71910;SDS011;59783;52.232;5.170;2023-03-14T04:09:25;26.30;;;21.27;;
71910;SDS011;59783;52.232;5.170;2023-03-14T04:11:50;25.50;;;21.03;;
71910;SDS011;59783;52.232;5.170;2023-03-14T04:14:16;24.17;;;19.43;;
71910;SDS011;59783;52.232;5.170;2023-03-14T04:16:41;27.00;;;19.67;;
71910;SDS011;59783;52.232;5.170;2023-03-14T04:19:06;22.07;;;19.67;;
71910;SDS011;59783;52.232;5.170;2023-03-14T04:21:31;28.13;;;20.37;;
71910;SDS011;59783;52.232;5.170;2023-03-14T04:23:56;24.30;;;21.80;;
71910;SDS011;59783;52.232;5.170;2023-03-14T04:26:22;22.63;;;19.87;;
71910;SDS011;59783;52.232;5.170;2023-03-14T04:28:47;25.53;;;21.93;;
71910;SDS011;59783;52.232;5.170;2023-03-14T04:31:15;28.47;;;20.60;;
71910;SDS011;59783;52.232;5.170;2023-03-14T04:33:40;29.23;;;20.67;;
71910;SDS011;59783;52.232;5.170;2023-03-14T04:36:06;25.00;;;19.23;;
71910;SDS011;59783;52.232;5.170;2023-03-14T04:38:31;27.92;;;20.45;;
71910;SDS011;59783;52.232;5.170;2023-03-14T04:40:57;24.90;;;19.67;;
71910;SDS011;59783;52.232;5.170;2023-03-14T04:43:22;29.00;;;20.52;;
71910;SDS011;59783;52.232;5.170;2023-03-14T04:45:47;26.98;;;20.17;;
71910;SDS011;59783;52.232;5.170;2023-03-14T04:48:13;26.17;;;22.55;;
71910;SDS011;59783;52.232;5.170;2023-03-14T04:50:38;26.38;;;20.98;;
71910;SDS011;59783;52.232;5.170;2023-03-14T04:53:04;30.60;;;21.17;;
71910;SDS011;59783;52.232;5.170;2023-03-14T04:55:29;22.27;;;19.60;;
71910;SDS011;59783;52.232;5.170;2023-03-14T04:57:54;26.45;;;21.80;;
71910;SDS011;59783;52.232;5.170;2023-03-14T05:00:19;26.97;;;21.17;;
71910;SDS011;59783;52.232;5.170;2023-03-14T05:02:44;23.70;;;21.07;;
71910;SDS011;59783;52.232;5.170;2023-03-14T05:05:10;24.90;;;21.17;;
71910;SDS011;59783;52.232;5.170;2023-03-14T05:07:36;27.23;;;22.63;;
71910;SDS011;59783;52.232;5.170;2023-03-14T05:10:01;28.13;;;22.93;;
71910;SDS011;59783;52.232;5.170;2023-03-14T05:12:26;29.47;;;25.37;;
71910;SDS011;59783;52.232;5.170;2023-03-14T05:14:51;31.50;;;23.23;;
71910;SDS011;59783;52.232;5.170;2023-03-14T05:17:17;33.90;;;23.20;;
71910;SDS011;59783;52.232;5.170;2023-03-14T05:19:43;29.55;;;24.17;;
71910;SDS011;59783;52.232;5.170;2023-03-14T05:22:08;28.58;;;25.02;;
71910;SDS011;59783;52.232;5.170;2023-03-14T05:24:33;39.97;;;27.63;;
71910;SDS011;59783;52.232;5.170;2023-03-14T05:26:59;34.67;;;26.90;;
71910;SDS011;59783;52.232;5.170;2023-03-14T05:29:24;32.53;;;25.40;;
71910;SDS011;59783;52.232;5.170;2023-03-14T05:31:49;34.73;;;25.23;;
71910;SDS011;59783;52.232;5.170;2023-03-14T05:34:14;38.47;;;24.77;;
71910;SDS011;59783;52.232;5.170;2023-03-14T05:36:39;32.03;;;27.03;;
71910;SDS011;59783;52.232;5.170;2023-03-14T05:39:05;29.73;;;25.83;;
71910;SDS011;59783;52.232;5.170;2023-03-14T05:41:30;35.90;;;27.25;;
71910;SDS011;59783;52.232;5.170;2023-03-14T05:43:55;40.40;;;26.57;;
71910;SDS011;59783;52.232;5.170;2023-03-14T05:46:20;33.37;;;25.63;;
71910;SDS011;59783;52.232;5.170;2023-03-14T05:48:45;31.57;;;26.40;;
71910;SDS011;59783;52.232;5.170;2023-03-14T05:51:11;32.37;;;25.30;;
71910;SDS011;59783;52.232;5.170;2023-03-14T05:53:36;32.42;;;27.45;;
71910;SDS011;59783;52.232;5.170;2023-03-14T05:56:01;31.13;;;25.77;;
71910;SDS011;59783;52.232;5.170;2023-03-14T05:58:27;33.47;;;26.40;;
71910;SDS011;59783;52.232;5.170;2023-03-14T06:00:52;36.07;;;27.53;;
71910;SDS011;59783;52.232;5.170;2023-03-14T06:03:17;30.52;;;27.33;;
71910;SDS011;59783;52.232;5.170;2023-03-14T06:05:42;34.23;;;30.20;;
71910;SDS011;59783;52.232;5.170;2023-03-14T06:08:07;30.93;;;24.70;;
71910;SDS011;59783;52.232;5.170;2023-03-14T06:10:34;31.33;;;27.93;;
71910;SDS011;59783;52.232;5.170;2023-03-14T06:12:59;37.28;;;28.48;;
71910;SDS011;59783;52.232;5.170;2023-03-14T06:15:24;39.43;;;31.90;;
71910;SDS011;59783;52.232;5.170;2023-03-14T06:17:49;34.93;;;30.73;;
71910;SDS011;59783;52.232;5.170;2023-03-14T06:20:14;31.23;;;27.07;;
71910;SDS011;59783;52.232;5.170;2023-03-14T06:22:40;31.07;;;27.97;;
71910;SDS011;59783;52.232;5.170;2023-03-14T06:25:05;27.98;;;25.13;;
71910;SDS011;59783;52.232;5.170;2023-03-14T06:27:31;28.55;;;25.42;;
71910;SDS011;59783;52.232;5.170;2023-03-14T06:29:56;27.33;;;24.73;;
71910;SDS011;59783;52.232;5.170;2023-03-14T06:32:21;28.80;;;26.00;;
71910;SDS011;59783;52.232;5.170;2023-03-14T06:34:46;27.30;;;24.63;;
71910;SDS011;59783;52.232;5.170;2023-03-14T06:37:11;29.30;;;26.60;;
71910;SDS011;59783;52.232;5.170;2023-03-14T06:39:37;29.13;;;24.60;;
71910;SDS011;59783;52.232;5.170;2023-03-14T06:42:03;29.30;;;26.63;;
71910;SDS011;59783;52.232;5.170;2023-03-14T06:44:29;30.15;;;27.35;;
71910;SDS011;59783;52.232;5.170;2023-03-14T06:46:54;28.20;;;25.60;;
71910;SDS011;59783;52.232;5.170;2023-03-14T06:49:19;30.30;;;27.33;;
71910;SDS011;59783;52.232;5.170;2023-03-14T06:51:44;30.30;;;27.53;;
71910;SDS011;59783;52.232;5.170;2023-03-14T06:54:09;28.40;;;25.83;;
71910;SDS011;59783;52.232;5.170;2023-03-14T06:56:35;30.80;;;27.73;;
71910;SDS011;59783;52.232;5.170;2023-03-14T06:59:00;28.13;;;25.60;;
71910;SDS011;59783;52.232;5.170;2023-03-14T07:01:28;28.97;;;26.23;;
71910;SDS011;59783;52.232;5.170;2023-03-14T07:03:54;29.45;;;26.67;;
71910;SDS011;59783;52.232;5.170;2023-03-14T07:06:20;28.35;;;25.52;;
71910;SDS011;59783;52.232;5.170;2023-03-14T07:08:45;26.60;;;24.00;;
71910;SDS011;59783;52.232;5.170;2023-03-14T07:11:10;29.20;;;26.45;;
71910;SDS011;59783;52.232;5.170;2023-03-14T07:13:36;27.77;;;25.20;;
71910;SDS011;59783;52.232;5.170;2023-03-14T07:16:02;25.10;;;22.55;;
71910;SDS011;59783;52.232;5.170;2023-03-14T07:18:27;25.67;;;23.17;;
71910;SDS011;59783;52.232;5.170;2023-03-14T07:20:52;26.53;;;23.73;;
71910;SDS011;59783;52.232;5.170;2023-03-14T07:23:17;30.40;;;27.20;;
71910;SDS011;59783;52.232;5.170;2023-03-14T07:25:42;27.50;;;25.00;;
71910;SDS011;59783;52.232;5.170;2023-03-14T07:28:08;28.67;;;25.70;;
71910;SDS011;59783;52.232;5.170;2023-03-14T07:30:33;30.43;;;27.67;;
71910;SDS011;59783;52.232;5.170;2023-03-14T07:32:58;26.40;;;23.63;;
71910;SDS011;59783;52.232;5.170;2023-03-14T07:35:23;25.97;;;23.47;;
71910;SDS011;59783;52.232;5.170;2023-03-14T07:37:48;29.17;;;23.63;;
71910;SDS011;59783;52.232;5.170;2023-03-14T07:40:13;23.53;;;20.43;;
71910;SDS011;59783;52.232;5.170;2023-03-14T07:42:40;24.77;;;22.27;;
71910;SDS011;59783;52.232;5.170;2023-03-14T07:45:05;26.55;;;22.83;;
71910;SDS011;59783;52.232;5.170;2023-03-14T07:47:30;26.13;;;21.00;;
71910;SDS011;59783;52.232;5.170;2023-03-14T07:49:56;27.90;;;21.23;;
71910;SDS011;59783;52.232;5.170;2023-03-14T07:52:21;30.53;;;22.43;;
71910;SDS011;59783;52.232;5.170;2023-03-14T07:54:46;30.67;;;22.73;;
71910;SDS011;59783;52.232;5.170;2023-03-14T07:57:11;29.50;;;24.43;;
71910;SDS011;59783;52.232;5.170;2023-03-14T07:59:36;27.63;;;24.93;;
71910;SDS011;59783;52.232;5.170;2023-03-14T08:02:01;29.67;;;26.07;;
71910;SDS011;59783;52.232;5.170;2023-03-14T08:04:27;30.30;;;27.10;;
71910;SDS011;59783;52.232;5.170;2023-03-14T08:06:52;28.70;;;26.03;;
71910;SDS011;59783;52.232;5.170;2023-03-14T08:09:19;28.20;;;25.33;;
71910;SDS011;59783;52.232;5.170;2023-03-14T08:11:44;28.60;;;25.60;;
71910;SDS011;59783;52.232;5.170;2023-03-14T08:14:09;28.80;;;25.80;;
71910;SDS011;59783;52.232;5.170;2023-03-14T08:16:36;28.85;;;26.02;;
71910;SDS011;59783;52.232;5.170;2023-03-14T08:19:01;27.30;;;24.70;;
71910;SDS011;59783;52.232;5.170;2023-03-14T08:21:26;30.20;;;27.08;;
71910;SDS011;59783;52.232;5.170;2023-03-14T08:23:51;29.15;;;26.42;;
71910;SDS011;59783;52.232;5.170;2023-03-14T08:26:16;28.70;;;25.90;;
71910;SDS011;59783;52.232;5.170;2023-03-14T08:28:42;27.63;;;25.00;;
71910;SDS011;59783;52.232;5.170;2023-03-14T08:31:07;27.37;;;24.90;;
71910;SDS011;59783;52.232;5.170;2023-03-14T08:33:32;25.63;;;23.00;;
71910;SDS011;59783;52.232;5.170;2023-03-14T08:35:58;24.27;;;21.93;;
71910;SDS011;59783;52.232;5.170;2023-03-14T08:38:23;25.38;;;23.08;;
71910;SDS011;59783;52.232;5.170;2023-03-14T08:40:48;28.10;;;23.58;;
71910;SDS011;59783;52.232;5.170;2023-03-14T08:43:15;28.20;;;22.98;;
71910;SDS011;59783;52.232;5.170;2023-03-14T08:45:40;27.07;;;23.13;;
71910;SDS011;59783;52.232;5.170;2023-03-14T08:48:05;24.77;;;21.97;;
71910;SDS011;59783;52.232;5.170;2023-03-14T08:50:30;31.03;;;21.83;;
71910;SDS011;59783;52.232;5.170;2023-03-14T08:52:55;26.53;;;23.70;;
71910;SDS011;59783;52.232;5.170;2023-03-14T08:55:24;28.98;;;20.88;;
71910;SDS011;59783;52.232;5.170;2023-03-14T08:57:49;30.00;;;20.42;;
71910;SDS011;59783;52.232;5.170;2023-03-14T09:00:15;28.70;;;21.63;;
71910;SDS011;59783;52.232;5.170;2023-03-14T09:02:41;30.63;;;21.33;;
71910;SDS011;59783;52.232;5.170;2023-03-14T09:05:08;27.55;;;22.02;;
71910;SDS011;59783;52.232;5.170;2023-03-14T09:07:33;31.67;;;24.20;;
71910;SDS011;59783;52.232;5.170;2023-03-14T09:09:58;30.42;;;24.55;;
71910;SDS011;59783;52.232;5.170;2023-03-14T09:12:24;31.08;;;22.67;;
71910;SDS011;59783;52.232;5.170;2023-03-14T09:14:49;32.67;;;21.17;;
71910;SDS011;59783;52.232;5.170;2023-03-14T09:17:14;30.80;;;22.10;;
71910;SDS011;59783;52.232;5.170;2023-03-14T09:19:39;33.57;;;23.23;;
71910;SDS011;59783;52.232;5.170;2023-03-14T09:22:04;30.03;;;22.03;;
71910;SDS011;59783;52.232;5.170;2023-03-14T09:24:30;32.90;;;23.38;;
71910;SDS011;59783;52.232;5.170;2023-03-14T09:26:55;33.17;;;20.73;;
71910;SDS011;59783;52.232;5.170;2023-03-14T09:29:21;25.35;;;21.60;;
71910;SDS011;59783;52.232;5.170;2023-03-14T09:31:47;28.97;;;21.60;;
71910;SDS011;59783;52.232;5.170;2023-03-14T09:34:12;28.53;;;20.13;;
71910;SDS011;59783;52.232;5.170;2023-03-14T09:36:37;30.53;;;22.10;;
71910;SDS011;59783;52.232;5.170;2023-03-14T09:39:04;29.48;;;21.92;;
71910;SDS011;59783;52.232;5.170;2023-03-14T09:41:31;25.20;;;19.77;;
71910;SDS011;59783;52.232;5.170;2023-03-14T09:44:05;36.80;;;21.55;;
71910;SDS011;59783;52.232;5.170;2023-03-14T09:46:34;30.95;;;22.38;;
71910;SDS011;59783;52.232;5.170;2023-03-14T09:49:00;31.05;;;20.75;;
71910;SDS011;59783;52.232;5.170;2023-03-14T09:51:25;30.65;;;19.88;;
71910;SDS011;59783;52.232;5.170;2023-03-14T09:53:51;33.80;;;22.80;;
71910;SDS011;59783;52.232;5.170;2023-03-14T09:56:21;30.17;;;22.05;;
71910;SDS011;59783;52.232;5.170;2023-03-14T09:58:49;29.35;;;21.42;;
71910;SDS011;59783;52.232;5.170;2023-03-14T10:01:15;31.25;;;21.20;;
71910;SDS011;59783;52.232;5.170;2023-03-14T10:03:42;27.35;;;20.95;;
71910;SDS011;59783;52.232;5.170;2023-03-14T10:06:12;32.88;;;20.17;;
71910;SDS011;59783;52.232;5.170;2023-03-14T10:08:42;26.65;;;19.23;;
71910;SDS011;59783;52.232;5.170;2023-03-14T10:11:12;32.13;;;23.05;;
71910;SDS011;59783;52.232;5.170;2023-03-14T10:13:46;31.60;;;23.20;;
71910;SDS011;59783;52.232;5.170;2023-03-14T10:16:12;27.00;;;20.13;;
71910;SDS011;59783;52.232;5.170;2023-03-14T10:18:38;35.45;;;22.02;;
71910;SDS011;59783;52.232;5.170;2023-03-14T10:21:22;29.13;;;21.70;;
71910;SDS011;59783;52.232;5.170;2023-03-14T10:23:50;29.63;;;23.88;;
71910;SDS011;59783;52.232;5.170;2023-03-14T10:26:16;28.90;;;21.20;;
71910;SDS011;59783;52.232;5.170;2023-03-14T10:28:46;38.40;;;20.27;;
71910;SDS011;59783;52.232;5.170;2023-03-14T10:31:13;37.22;;;21.55;;
71910;SDS011;59783;52.232;5.170;2023-03-14T10:33:38;26.33;;;20.60;;
71910;SDS011;59783;52.232;5.170;2023-03-14T10:38:30;30.67;;;20.02;;
71910;SDS011;59783;52.232;5.170;2023-03-14T10:40:56;25.20;;;22.00;;
71910;SDS011;59783;52.232;5.170;2023-03-14T10:43:23;39.65;;;22.60;;
71910;SDS011;59783;52.232;5.170;2023-03-14T10:45:52;33.15;;;23.88;;
71910;SDS011;59783;52.232;5.170;2023-03-14T10:48:32;30.38;;;22.13;;
71910;SDS011;59783;52.232;5.170;2023-03-14T10:53:23;38.07;;;24.50;;
71910;SDS011;59783;52.232;5.170;2023-03-14T10:55:49;33.15;;;21.75;;
71910;SDS011;59783;52.232;5.170;2023-03-14T10:58:25;31.42;;;23.20;;
71910;SDS011;59783;52.232;5.170;2023-03-14T11:03:25;31.63;;;21.83;;
71910;SDS011;59783;52.232;5.170;2023-03-14T11:08:25;32.37;;;22.03;;
71910;SDS011;59783;52.232;5.170;2023-03-14T11:10:54;25.98;;;21.92;;
71910;SDS011;59783;52.232;5.170;2023-03-14T11:13:29;28.30;;;21.38;;
71910;SDS011;59783;52.232;5.170;2023-03-14T11:24:02;36.58;;;21.60;;
71910;SDS011;59783;52.232;5.170;2023-03-14T11:28:57;27.23;;;19.17;;
71910;SDS011;59783;52.232;5.170;2023-03-14T11:31:29;25.73;;;23.02;;
71910;SDS011;59783;52.232;5.170;2023-03-14T11:34:05;26.55;;;22.38;;
71910;SDS011;59783;52.232;5.170;2023-03-14T11:36:39;22.92;;;19.35;;
71910;SDS011;59783;52.232;5.170;2023-03-14T11:39:07;28.73;;;19.20;;
71910;SDS011;59783;52.232;5.170;2023-03-14T11:41:39;34.08;;;19.90;;
71910;SDS011;59783;52.232;5.170;2023-03-14T11:46:48;26.48;;;20.65;;
71910;SDS011;59783;52.232;5.170;2023-03-14T11:51:41;24.65;;;19.00;;
71910;SDS011;59783;52.232;5.170;2023-03-14T11:54:16;25.13;;;20.63;;
71910;SDS011;59783;52.232;5.170;2023-03-14T11:56:58;34.22;;;31.00;;
71910;SDS011;59783;52.232;5.170;2023-03-14T11:59:26;26.00;;;22.77;;
71910;SDS011;59783;52.232;5.170;2023-03-14T12:01:53;26.25;;;19.38;;
71910;SDS011;59783;52.232;5.170;2023-03-14T12:06:56;30.23;;;19.35;;
71910;SDS011;59783;52.232;5.170;2023-03-14T12:09:26;26.00;;;19.38;;
71910;SDS011;59783;52.232;5.170;2023-03-14T12:11:52;21.40;;;19.05;;
71910;SDS011;59783;52.232;5.170;2023-03-14T12:16:52;25.92;;;19.30;;
71910;SDS011;59783;52.232;5.170;2023-03-14T12:22:12;22.63;;;20.17;;
71910;SDS011;59783;52.232;5.170;2023-03-14T12:24:33;23.83;;;18.75;;
71910;SDS011;59783;52.232;5.170;2023-03-14T12:27:00;21.17;;;18.83;;
71910;SDS011;59783;52.232;5.170;2023-03-14T12:29:26;23.05;;;18.83;;
71910;SDS011;59783;52.232;5.170;2023-03-14T12:34:29;22.45;;;19.10;;
71910;SDS011;59783;52.232;5.170;2023-03-14T12:37:04;21.60;;;19.13;;
71910;SDS011;59783;52.232;5.170;2023-03-14T12:39:43;24.33;;;18.48;;
71910;SDS011;59783;52.232;5.170;2023-03-14T12:42:11;22.45;;;19.35;;
71910;SDS011;59783;52.232;5.170;2023-03-14T12:44:47;27.45;;;19.33;;
71910;SDS011;59783;52.232;5.170;2023-03-14T12:49:38;21.42;;;18.80;;
71910;SDS011;59783;52.232;5.170;2023-03-14T12:52:10;24.52;;;20.85;;
71910;SDS011;59783;52.232;5.170;2023-03-14T12:59:30;21.70;;;19.40;;
71910;SDS011;59783;52.232;5.170;2023-03-14T13:04:37;24.33;;;20.27;;
71910;SDS011;59783;52.232;5.170;2023-03-14T13:12:47;29.17;;;23.15;;
71910;SDS011;59783;52.232;5.170;2023-03-14T13:15:15;22.95;;;20.40;;
71910;SDS011;59783;52.232;5.170;2023-03-14T13:17:42;22.10;;;19.67;;
71910;SDS011;59783;52.232;5.170;2023-03-14T13:20:18;26.10;;;19.20;;
71910;SDS011;59783;52.232;5.170;2023-03-14T13:22:47;22.30;;;19.90;;
71910;SDS011;59783;52.232;5.170;2023-03-14T13:25:13;25.35;;;22.98;;
71910;SDS011;59783;52.232;5.170;2023-03-14T13:27:38;35.27;;;20.03;;
71910;SDS011;59783;52.232;5.170;2023-03-14T13:32:39;24.73;;;20.80;;
71910;SDS011;59783;52.232;5.170;2023-03-14T13:35:13;28.60;;;19.55;;
71910;SDS011;59783;52.232;5.170;2023-03-14T13:37:39;22.80;;;18.50;;
71910;SDS011;59783;52.232;5.170;2023-03-14T13:40:04;26.80;;;21.00;;
71910;SDS011;59783;52.232;5.170;2023-03-14T13:42:30;21.55;;;19.13;;
71910;SDS011;59783;52.232;5.170;2023-03-14T13:44:55;29.03;;;20.37;;
71910;SDS011;59783;52.232;5.170;2023-03-14T13:47:21;25.25;;;19.83;;
71910;SDS011;59783;52.232;5.170;2023-03-14T13:49:48;22.17;;;18.08;;
71910;SDS011;59783;52.232;5.170;2023-03-14T13:52:24;24.55;;;18.88;;
71910;SDS011;59783;52.232;5.170;2023-03-14T13:54:52;23.40;;;20.13;;
71910;SDS011;59783;52.232;5.170;2023-03-14T13:57:18;28.30;;;20.17;;
71910;SDS011;59783;52.232;5.170;2023-03-14T13:59:43;26.93;;;21.17;;
71910;SDS011;59783;52.232;5.170;2023-03-14T14:02:14;25.47;;;21.37;;
71910;SDS011;59783;52.232;5.170;2023-03-14T14:04:40;25.60;;;22.83;;
71910;SDS011;59783;52.232;5.170;2023-03-14T14:07:09;24.40;;;19.87;;
71910;SDS011;59783;52.232;5.170;2023-03-14T14:09:39;22.70;;;19.10;;
71910;SDS011;59783;52.232;5.170;2023-03-14T14:14:31;25.75;;;21.23;;
71910;SDS011;59783;52.232;5.170;2023-03-14T14:16:57;24.00;;;21.23;;
71910;SDS011;59783;52.232;5.170;2023-03-14T14:19:23;21.80;;;18.98;;
71910;SDS011;59783;52.232;5.170;2023-03-14T14:21:50;21.40;;;19.17;;
71910;SDS011;59783;52.232;5.170;2023-03-14T14:24:15;21.58;;;19.35;;
71910;SDS011;59783;52.232;5.170;2023-03-14T14:26:46;24.80;;;22.38;;
71910;SDS011;59783;52.232;5.170;2023-03-14T14:29:21;22.13;;;19.83;;
71910;SDS011;59783;52.232;5.170;2023-03-14T14:31:48;28.50;;;20.20;;
71910;SDS011;59783;52.232;5.170;2023-03-14T14:34:23;21.55;;;19.35;;
71910;SDS011;59783;52.232;5.170;2023-03-14T14:36:51;23.02;;;20.73;;
71910;SDS011;59783;52.232;5.170;2023-03-14T14:39:19;22.20;;;19.70;;
71910;SDS011;59783;52.232;5.170;2023-03-14T14:41:45;21.70;;;18.20;;
71910;SDS011;59783;52.232;5.170;2023-03-14T14:44:13;25.95;;;20.88;;
71910;SDS011;59783;52.232;5.170;2023-03-14T14:46:39;25.63;;;22.42;;
71910;SDS011;59783;52.232;5.170;2023-03-14T14:49:06;20.90;;;18.92;;
71910;SDS011;59783;52.232;5.170;2023-03-14T14:51:34;24.48;;;19.10;;
71910;SDS011;59783;52.232;5.170;2023-03-14T14:54:09;25.77;;;22.20;;
71910;SDS011;59783;52.232;5.170;2023-03-14T14:56:36;24.33;;;20.55;;
71910;SDS011;59783;52.232;5.170;2023-03-14T14:59:02;23.48;;;21.05;;
71910;SDS011;59783;52.232;5.170;2023-03-14T15:01:37;21.17;;;18.90;;
71910;SDS011;59783;52.232;5.170;2023-03-14T15:04:04;22.55;;;20.25;;
71910;SDS011;59783;52.232;5.170;2023-03-14T15:06:33;23.30;;;20.30;;
71910;SDS011;59783;52.232;5.170;2023-03-14T15:08:58;22.13;;;19.77;;
71910;SDS011;59783;52.232;5.170;2023-03-14T15:11:24;22.03;;;19.83;;
71910;SDS011;59783;52.232;5.170;2023-03-14T15:13:50;23.13;;;20.65;;
71910;SDS011;59783;52.232;5.170;2023-03-14T15:16:16;25.65;;;21.02;;
71910;SDS011;59783;52.232;5.170;2023-03-14T15:18:42;26.25;;;21.15;;
71910;SDS011;59783;52.232;5.170;2023-03-14T15:23:35;21.65;;;19.42;;
71910;SDS011;59783;52.232;5.170;2023-03-14T15:26:01;21.23;;;19.07;;
71910;SDS011;59783;52.232;5.170;2023-03-14T15:28:27;22.77;;;18.90;;